TFM - Tactical Decision Aid
ID: Runway Winds: CIG/VIS Threshold:

KMCO - Orlando Intl, FL, US

Updated at: 1538 UTC 26 Apr 2019
Latest TAF at: 1440 UTC 26 Apr 2019

TAF Board

Time1528Z 26/16Z 26/17Z 26/18Z 26/19Z 26/20Z 26/21Z 26/22Z 26/23Z 27/00Z 27/01Z 27/02Z 27/03Z 27/04Z>>
Type OBS PRVL PRVL PRVL PRVL PRVL PRVL PRVL PRVL PRVL PRVL PRVL PRVL PRVL
VIS 10 >6 >6 >6 >6 >6 >6 >6 >6 >6 >6 >6 >6 >6
CIG 9 40 40 40 250 250 250 250 250 250 250 250 -- --
Cover BKN BKN BKN BKN BKN BKN BKN BKN BKN BKN BKN BKN FEW FEW
FltCat IFR VFR VFR VFR VFR VFR VFR VFR VFR VFR VFR VFR VFR VFR
WX -- VCSH VCSH VCSH -- -- -- -- -- -- -- -- -- --
WDir 220 230 230 230 260 260 260 260 260 260 260 260 310 310
WSpd 11 14 14 14 14 14 14 14 14 14 14 14 9 9
WGst -- 20 20 20 20 20 20 20 20 20 20 20 -- --

TDA Impact Legend

  None Marginal Slight Moderate High
Visibility (sm) >5 3≤X≤5 1≤X<3 0.5≤X<1 <0.5
Ceiling (100 ft) >30 10≤X≤30 4≤X<10 2≤X<4 <2
Wind Speed (kt) <15 15≤X<25 25≤X<30 ≥30
Wind Gust (kt) <15 15≤X<25 25≤X<35 ≥35
Weather No Wx Reported VCTS -TS,-FZRA TS,FZRA +TS,+FZRA
TAF
KMCO 261440Z 2615/2718 21009KT P6SM VCSH FEW008 SCT120 OVC180
  TEMPO 2614/2616 6SM -SHRA BKN050
  FM261600 23014G20KT P6SM VCSH SCT025 BKN040
  FM261900 26014G20KT P6SM SCT050 BKN250
  FM270300 31009KT P6SM FEW020
  FM270600 35011KT P6SM SKC
  FM271500 04009KT P6SM SCT040


METAR
KMCO 261528Z 22011KT 10SM BKN009 BKN045 BKN110 BKN200 24/22 A2991 RMK AO2 RAE19 BKN009 V SCT P0001 T02440222
KMCO 261453Z 19010KT 7SM -RA FEW008 SCT095 BKN110 OVC200 23/21 A2991 RMK AO2 RAB01 SLP128 P0001 60001 T02280206 56011
KMCO 261353Z 19009KT 10SM FEW008 SCT120 OVC180 22/20 A2993 RMK AO2 SLP135 T02220200
KMCO 261253Z 17008KT 10SM FEW005 FEW020 SCT110 OVC200 22/20 A2992 RMK AO2 SLP129 T02170200

Radar Display
Forecast Discussion